sensor_id;sensor_type;location;lat;lon;timestamp;P1;durP1;ratioP1;P2;durP2;ratioP2
56073;SDS011;41950;55.840;37.442;2023-05-10T00:00:35;12.70;;;7.35;;
56073;SDS011;41950;55.840;37.442;2023-05-10T00:03:01;12.77;;;7.88;;
56073;SDS011;41950;55.840;37.442;2023-05-10T00:05:29;13.98;;;8.10;;
56073;SDS011;41950;55.840;37.442;2023-05-10T00:07:55;13.68;;;7.47;;
56073;SDS011;41950;55.840;37.442;2023-05-10T00:10:20;14.27;;;8.05;;
56073;SDS011;41950;55.840;37.442;2023-05-10T00:12:46;15.25;;;8.23;;
56073;SDS011;41950;55.840;37.442;2023-05-10T00:15:12;16.15;;;7.35;;
56073;SDS011;41950;55.840;37.442;2023-05-10T00:17:38;12.18;;;6.95;;
56073;SDS011;41950;55.840;37.442;2023-05-10T00:20:04;13.90;;;6.80;;
56073;SDS011;41950;55.840;37.442;2023-05-10T00:22:31;14.45;;;7.03;;
56073;SDS011;41950;55.840;37.442;2023-05-10T00:24:57;14.98;;;7.50;;
56073;SDS011;41950;55.840;37.442;2023-05-10T00:27:24;11.75;;;7.57;;
56073;SDS011;41950;55.840;37.442;2023-05-10T00:29:49;11.18;;;7.18;;
56073;SDS011;41950;55.840;37.442;2023-05-10T00:32:15;11.40;;;6.95;;
56073;SDS011;41950;55.840;37.442;2023-05-10T00:34:41;13.35;;;7.35;;
56073;SDS011;41950;55.840;37.442;2023-05-10T00:37:07;12.45;;;6.75;;
56073;SDS011;41950;55.840;37.442;2023-05-10T00:39:33;9.57;;;6.97;;
56073;SDS011;41950;55.840;37.442;2023-05-10T00:41:58;11.90;;;7.25;;
56073;SDS011;41950;55.840;37.442;2023-05-10T00:44:25;11.75;;;7.00;;
56073;SDS011;41950;55.840;37.442;2023-05-10T00:46:51;10.85;;;7.25;;
56073;SDS011;41950;55.840;37.442;2023-05-10T00:49:18;12.65;;;7.07;;
56073;SDS011;41950;55.840;37.442;2023-05-10T00:51:44;11.18;;;6.80;;
56073;SDS011;41950;55.840;37.442;2023-05-10T00:54:11;11.93;;;7.30;;
56073;SDS011;41950;55.840;37.442;2023-05-10T00:56:39;15.00;;;7.78;;
56073;SDS011;41950;55.840;37.442;2023-05-10T00:59:05;13.77;;;7.22;;
56073;SDS011;41950;55.840;37.442;2023-05-10T01:01:31;12.25;;;7.03;;
56073;SDS011;41950;55.840;37.442;2023-05-10T01:03:57;11.45;;;7.53;;
56073;SDS011;41950;55.840;37.442;2023-05-10T01:06:24;14.10;;;7.45;;
56073;SDS011;41950;55.840;37.442;2023-05-10T01:08:49;13.18;;;7.90;;
56073;SDS011;41950;55.840;37.442;2023-05-10T01:11:18;12.85;;;7.28;;
56073;SDS011;41950;55.840;37.442;2023-05-10T01:13:44;13.32;;;6.78;;
56073;SDS011;41950;55.840;37.442;2023-05-10T01:16:17;13.43;;;7.03;;
56073;SDS011;41950;55.840;37.442;2023-05-10T01:18:43;11.48;;;7.10;;
56073;SDS011;41950;55.840;37.442;2023-05-10T01:32:34;13.93;;;6.53;;
56073;SDS011;41950;55.840;37.442;2023-05-10T01:37:59;10.70;;;6.82;;
56073;SDS011;41950;55.840;37.442;2023-05-10T01:43:47;9.50;;;6.40;;
56073;SDS011;41950;55.840;37.442;2023-05-10T01:46:17;10.82;;;6.10;;
56073;SDS011;41950;55.840;37.442;2023-05-10T01:48:52;10.65;;;6.40;;
56073;SDS011;41950;55.840;37.442;2023-05-10T01:51:23;10.25;;;5.95;;
56073;SDS011;41950;55.840;37.442;2023-05-10T01:53:51;11.10;;;6.10;;
56073;SDS011;41950;55.840;37.442;2023-05-10T01:56:24;9.82;;;6.53;;
56073;SDS011;41950;55.840;37.442;2023-05-10T01:58:52;10.85;;;6.65;;
56073;SDS011;41950;55.840;37.442;2023-05-10T02:01:20;9.10;;;6.30;;
56073;SDS011;41950;55.840;37.442;2023-05-10T02:03:46;17.92;;;6.95;;
56073;SDS011;41950;55.840;37.442;2023-05-10T02:06:15;9.80;;;5.93;;
56073;SDS011;41950;55.840;37.442;2023-05-10T02:08:43;10.68;;;6.38;;
56073;SDS011;41950;55.840;37.442;2023-05-10T02:11:12;12.18;;;6.70;;
56073;SDS011;41950;55.840;37.442;2023-05-10T02:13:39;11.10;;;6.40;;
56073;SDS011;41950;55.840;37.442;2023-05-10T02:16:07;9.52;;;6.60;;
56073;SDS011;41950;55.840;37.442;2023-05-10T02:18:33;10.57;;;6.78;;
56073;SDS011;41950;55.840;37.442;2023-05-10T02:21:02;8.77;;;6.40;;
56073;SDS011;41950;55.840;37.442;2023-05-10T02:23:29;9.68;;;6.63;;
56073;SDS011;41950;55.840;37.442;2023-05-10T02:25:56;10.73;;;6.25;;
56073;SDS011;41950;55.840;37.442;2023-05-10T02:28:25;11.65;;;6.70;;
56073;SDS011;41950;55.840;37.442;2023-05-10T02:30:52;12.02;;;6.68;;
56073;SDS011;41950;55.840;37.442;2023-05-10T02:33:19;9.82;;;6.65;;
56073;SDS011;41950;55.840;37.442;2023-05-10T02:35:46;11.00;;;6.90;;
56073;SDS011;41950;55.840;37.442;2023-05-10T02:38:12;13.13;;;6.70;;
56073;SDS011;41950;55.840;37.442;2023-05-10T02:40:40;14.45;;;7.25;;
56073;SDS011;41950;55.840;37.442;2023-05-10T02:43:09;11.85;;;6.32;;
56073;SDS011;41950;55.840;37.442;2023-05-10T02:45:39;10.68;;;7.35;;
56073;SDS011;41950;55.840;37.442;2023-05-10T02:48:06;10.88;;;6.55;;
56073;SDS011;41950;55.840;37.442;2023-05-10T02:50:33;12.68;;;6.35;;
56073;SDS011;41950;55.840;37.442;2023-05-10T02:53:01;9.35;;;6.30;;
56073;SDS011;41950;55.840;37.442;2023-05-10T02:55:32;13.25;;;7.13;;
56073;SDS011;41950;55.840;37.442;2023-05-10T02:58:03;11.20;;;6.53;;
56073;SDS011;41950;55.840;37.442;2023-05-10T03:00:29;12.95;;;6.82;;
56073;SDS011;41950;55.840;37.442;2023-05-10T03:02:55;11.15;;;6.53;;
56073;SDS011;41950;55.840;37.442;2023-05-10T03:05:21;12.70;;;6.38;;
56073;SDS011;41950;55.840;37.442;2023-05-10T03:07:46;11.13;;;6.65;;
56073;SDS011;41950;55.840;37.442;2023-05-10T03:10:12;12.18;;;6.50;;
56073;SDS011;41950;55.840;37.442;2023-05-10T03:18:03;11.27;;;6.32;;
56073;SDS011;41950;55.840;37.442;2023-05-10T03:20:41;12.33;;;6.83;;
56073;SDS011;41950;55.840;37.442;2023-05-10T03:25:43;12.05;;;6.40;;
56073;SDS011;41950;55.840;37.442;2023-05-10T03:28:12;11.70;;;6.28;;
56073;SDS011;41950;55.840;37.442;2023-05-10T03:30:41;13.18;;;6.50;;
56073;SDS011;41950;55.840;37.442;2023-05-10T03:33:08;11.32;;;7.00;;
56073;SDS011;41950;55.840;37.442;2023-05-10T03:35:34;10.95;;;6.63;;
56073;SDS011;41950;55.840;37.442;2023-05-10T03:38:00;12.93;;;6.75;;
56073;SDS011;41950;55.840;37.442;2023-05-10T03:40:26;12.75;;;6.65;;
56073;SDS011;41950;55.840;37.442;2023-05-10T03:42:57;13.45;;;6.68;;
56073;SDS011;41950;55.840;37.442;2023-05-10T03:45:24;10.52;;;6.72;;
56073;SDS011;41950;55.840;37.442;2023-05-10T03:47:50;9.95;;;6.68;;
56073;SDS011;41950;55.840;37.442;2023-05-10T03:50:15;11.02;;;7.25;;
56073;SDS011;41950;55.840;37.442;2023-05-10T03:52:41;10.45;;;6.50;;
56073;SDS011;41950;55.840;37.442;2023-05-10T03:55:07;14.10;;;7.20;;
56073;SDS011;41950;55.840;37.442;2023-05-10T03:57:33;13.32;;;7.82;;
56073;SDS011;41950;55.840;37.442;2023-05-10T03:59:59;9.85;;;6.38;;
56073;SDS011;41950;55.840;37.442;2023-05-10T04:02:25;10.88;;;6.47;;
56073;SDS011;41950;55.840;37.442;2023-05-10T04:04:55;11.02;;;6.35;;
56073;SDS011;41950;55.840;37.442;2023-05-10T04:07:20;8.40;;;6.43;;
56073;SDS011;41950;55.840;37.442;2023-05-10T04:09:46;11.13;;;7.35;;
56073;SDS011;41950;55.840;37.442;2023-05-10T04:12:12;11.95;;;7.13;;
56073;SDS011;41950;55.840;37.442;2023-05-10T04:14:38;12.77;;;6.60;;
56073;SDS011;41950;55.840;37.442;2023-05-10T04:17:03;12.07;;;6.35;;
56073;SDS011;41950;55.840;37.442;2023-05-10T04:19:30;12.05;;;6.72;;
56073;SDS011;41950;55.840;37.442;2023-05-10T04:21:56;12.32;;;6.88;;
56073;SDS011;41950;55.840;37.442;2023-05-10T04:24:22;11.55;;;7.05;;
56073;SDS011;41950;55.840;37.442;2023-05-10T04:26:48;9.25;;;6.88;;
56073;SDS011;41950;55.840;37.442;2023-05-10T04:29:14;10.30;;;6.85;;
56073;SDS011;41950;55.840;37.442;2023-05-10T04:31:39;12.18;;;7.50;;
56073;SDS011;41950;55.840;37.442;2023-05-10T04:34:05;11.75;;;7.10;;
56073;SDS011;41950;55.840;37.442;2023-05-10T04:36:34;12.00;;;7.10;;
56073;SDS011;41950;55.840;37.442;2023-05-10T04:39:03;13.25;;;6.70;;
56073;SDS011;41950;55.840;37.442;2023-05-10T04:41:29;13.05;;;7.30;;
56073;SDS011;41950;55.840;37.442;2023-05-10T04:43:55;12.40;;;7.50;;
56073;SDS011;41950;55.840;37.442;2023-05-10T04:46:23;11.20;;;7.10;;
56073;SDS011;41950;55.840;37.442;2023-05-10T04:48:49;9.65;;;6.72;;
56073;SDS011;41950;55.840;37.442;2023-05-10T04:51:15;33.40;;;9.18;;
56073;SDS011;41950;55.840;37.442;2023-05-10T04:53:41;10.65;;;6.57;;
56073;SDS011;41950;55.840;37.442;2023-05-10T04:56:07;9.77;;;6.53;;
56073;SDS011;41950;55.840;37.442;2023-05-10T04:58:32;11.30;;;6.70;;
56073;SDS011;41950;55.840;37.442;2023-05-10T05:01:08;11.10;;;6.88;;
56073;SDS011;41950;55.840;37.442;2023-05-10T05:03:34;10.90;;;6.90;;
56073;SDS011;41950;55.840;37.442;2023-05-10T05:06:01;11.13;;;6.78;;
56073;SDS011;41950;55.840;37.442;2023-05-10T05:08:27;13.65;;;7.07;;
56073;SDS011;41950;55.840;37.442;2023-05-10T05:10:53;8.82;;;6.30;;
56073;SDS011;41950;55.840;37.442;2023-05-10T05:13:19;10.73;;;6.93;;
56073;SDS011;41950;55.840;37.442;2023-05-10T05:15:45;12.15;;;7.13;;
56073;SDS011;41950;55.840;37.442;2023-05-10T05:18:11;8.80;;;6.07;;
56073;SDS011;41950;55.840;37.442;2023-05-10T05:20:37;12.88;;;7.03;;
56073;SDS011;41950;55.840;37.442;2023-05-10T05:23:02;12.02;;;6.78;;
56073;SDS011;41950;55.840;37.442;2023-05-10T05:25:28;9.30;;;6.25;;
56073;SDS011;41950;55.840;37.442;2023-05-10T05:27:54;10.35;;;6.45;;
56073;SDS011;41950;55.840;37.442;2023-05-10T05:30:20;13.40;;;6.70;;
56073;SDS011;41950;55.840;37.442;2023-05-10T05:32:45;9.60;;;6.68;;
56073;SDS011;41950;55.840;37.442;2023-05-10T05:35:12;8.30;;;6.28;;
56073;SDS011;41950;55.840;37.442;2023-05-10T05:37:38;8.30;;;6.40;;
56073;SDS011;41950;55.840;37.442;2023-05-10T05:40:04;9.30;;;6.18;;
56073;SDS011;41950;55.840;37.442;2023-05-10T05:42:32;15.00;;;7.50;;
56073;SDS011;41950;55.840;37.442;2023-05-10T05:44:58;12.23;;;7.85;;
56073;SDS011;41950;55.840;37.442;2023-05-10T05:47:24;9.55;;;6.68;;
56073;SDS011;41950;55.840;37.442;2023-05-10T05:49:50;9.73;;;6.28;;
56073;SDS011;41950;55.840;37.442;2023-05-10T05:52:16;13.48;;;6.50;;
56073;SDS011;41950;55.840;37.442;2023-05-10T05:54:42;9.43;;;6.90;;
56073;SDS011;41950;55.840;37.442;2023-05-10T05:57:07;9.73;;;6.25;;
56073;SDS011;41950;55.840;37.442;2023-05-10T05:59:34;11.35;;;6.32;;
56073;SDS011;41950;55.840;37.442;2023-05-10T06:02:00;10.10;;;6.88;;
56073;SDS011;41950;55.840;37.442;2023-05-10T06:04:25;11.07;;;6.13;;
56073;SDS011;41950;55.840;37.442;2023-05-10T06:06:51;12.00;;;6.25;;
56073;SDS011;41950;55.840;37.442;2023-05-10T06:09:17;10.02;;;5.65;;
56073;SDS011;41950;55.840;37.442;2023-05-10T06:11:43;9.70;;;6.22;;
56073;SDS011;41950;55.840;37.442;2023-05-10T06:14:10;12.30;;;6.25;;
56073;SDS011;41950;55.840;37.442;2023-05-10T06:16:36;9.30;;;5.50;;
56073;SDS011;41950;55.840;37.442;2023-05-10T06:19:02;10.98;;;5.75;;
56073;SDS011;41950;55.840;37.442;2023-05-10T06:21:28;11.57;;;5.65;;
56073;SDS011;41950;55.840;37.442;2023-05-10T06:24:06;8.60;;;5.30;;
56073;SDS011;41950;55.840;37.442;2023-05-10T06:26:34;9.10;;;5.03;;
56073;SDS011;41950;55.840;37.442;2023-05-10T06:29:00;8.95;;;4.95;;
56073;SDS011;41950;55.840;37.442;2023-05-10T06:31:26;8.15;;;4.75;;
56073;SDS011;41950;55.840;37.442;2023-05-10T06:33:52;10.05;;;4.25;;
56073;SDS011;41950;55.840;37.442;2023-05-10T06:36:18;10.15;;;4.63;;
56073;SDS011;41950;55.840;37.442;2023-05-10T06:38:44;6.57;;;4.45;;
56073;SDS011;41950;55.840;37.442;2023-05-10T06:41:09;7.47;;;4.63;;
56073;SDS011;41950;55.840;37.442;2023-05-10T06:43:35;8.70;;;4.15;;
56073;SDS011;41950;55.840;37.442;2023-05-10T06:46:02;8.82;;;4.35;;
56073;SDS011;41950;55.840;37.442;2023-05-10T06:48:27;10.80;;;3.75;;
56073;SDS011;41950;55.840;37.442;2023-05-10T06:50:53;11.60;;;4.80;;
56073;SDS011;41950;55.840;37.442;2023-05-10T06:53:19;9.93;;;4.07;;
56073;SDS011;41950;55.840;37.442;2023-05-10T06:55:45;9.10;;;4.13;;
56073;SDS011;41950;55.840;37.442;2023-05-10T06:58:11;9.88;;;4.53;;
56073;SDS011;41950;55.840;37.442;2023-05-10T07:00:37;9.95;;;4.68;;
56073;SDS011;41950;55.840;37.442;2023-05-10T07:03:05;8.30;;;3.92;;
56073;SDS011;41950;55.840;37.442;2023-05-10T07:05:34;9.85;;;4.30;;
56073;SDS011;41950;55.840;37.442;2023-05-10T07:07:59;9.68;;;4.03;;
56073;SDS011;41950;55.840;37.442;2023-05-10T07:10:25;9.63;;;3.97;;
56073;SDS011;41950;55.840;37.442;2023-05-10T07:12:51;8.35;;;4.15;;
56073;SDS011;41950;55.840;37.442;2023-05-10T07:15:17;9.52;;;4.30;;
56073;SDS011;41950;55.840;37.442;2023-05-10T07:17:43;7.88;;;4.05;;
56073;SDS011;41950;55.840;37.442;2023-05-10T07:20:09;6.13;;;3.22;;
56073;SDS011;41950;55.840;37.442;2023-05-10T07:22:35;9.30;;;3.35;;
56073;SDS011;41950;55.840;37.442;2023-05-10T07:25:01;8.18;;;3.60;;
56073;SDS011;41950;55.840;37.442;2023-05-10T07:27:30;4.93;;;2.40;;
56073;SDS011;41950;55.840;37.442;2023-05-10T07:29:55;5.10;;;2.55;;
56073;SDS011;41950;55.840;37.442;2023-05-10T07:32:21;4.38;;;1.90;;
56073;SDS011;41950;55.840;37.442;2023-05-10T07:34:47;6.40;;;2.13;;
56073;SDS011;41950;55.840;37.442;2023-05-10T07:37:13;8.93;;;2.67;;
56073;SDS011;41950;55.840;37.442;2023-05-10T07:39:38;6.45;;;2.95;;
56073;SDS011;41950;55.840;37.442;2023-05-10T07:42:07;7.65;;;2.80;;
56073;SDS011;41950;55.840;37.442;2023-05-10T07:44:33;7.45;;;3.03;;
56073;SDS011;41950;55.840;37.442;2023-05-10T07:46:59;4.72;;;2.45;;
56073;SDS011;41950;55.840;37.442;2023-05-10T07:49:25;7.70;;;2.67;;
56073;SDS011;41950;55.840;37.442;2023-05-10T07:51:51;6.25;;;2.30;;
56073;SDS011;41950;55.840;37.442;2023-05-10T07:54:17;4.43;;;2.17;;
56073;SDS011;41950;55.840;37.442;2023-05-10T07:56:42;6.50;;;2.30;;
56073;SDS011;41950;55.840;37.442;2023-05-10T07:59:14;5.72;;;2.25;;
56073;SDS011;41950;55.840;37.442;2023-05-10T08:01:41;6.28;;;2.72;;
56073;SDS011;41950;55.840;37.442;2023-05-10T08:04:07;6.47;;;2.13;;
56073;SDS011;41950;55.840;37.442;2023-05-10T08:06:34;5.28;;;2.25;;
56073;SDS011;41950;55.840;37.442;2023-05-10T08:08:59;6.72;;;2.00;;
56073;SDS011;41950;55.840;37.442;2023-05-10T08:11:25;6.03;;;2.30;;
56073;SDS011;41950;55.840;37.442;2023-05-10T08:13:53;4.65;;;2.10;;
56073;SDS011;41950;55.840;37.442;2023-05-10T08:16:19;5.55;;;2.45;;
56073;SDS011;41950;55.840;37.442;2023-05-10T08:18:46;5.05;;;2.30;;
56073;SDS011;41950;55.840;37.442;2023-05-10T08:21:12;4.38;;;2.05;;
56073;SDS011;41950;55.840;37.442;2023-05-10T08:23:39;7.30;;;2.38;;
56073;SDS011;41950;55.840;37.442;2023-05-10T08:26:05;5.20;;;2.05;;
56073;SDS011;41950;55.840;37.442;2023-05-10T08:28:31;6.75;;;2.03;;
56073;SDS011;41950;55.840;37.442;2023-05-10T08:30:57;6.93;;;1.90;;
56073;SDS011;41950;55.840;37.442;2023-05-10T08:33:24;4.60;;;2.42;;
56073;SDS011;41950;55.840;37.442;2023-05-10T08:35:50;5.07;;;2.00;;
56073;SDS011;41950;55.840;37.442;2023-05-10T08:38:17;5.65;;;2.75;;
56073;SDS011;41950;55.840;37.442;2023-05-10T08:40:44;6.80;;;2.40;;
56073;SDS011;41950;55.840;37.442;2023-05-10T08:43:11;4.88;;;2.05;;
56073;SDS011;41950;55.840;37.442;2023-05-10T08:45:41;5.28;;;2.15;;
56073;SDS011;41950;55.840;37.442;2023-05-10T08:48:08;4.00;;;1.90;;
56073;SDS011;41950;55.840;37.442;2023-05-10T08:50:39;4.10;;;2.33;;
56073;SDS011;41950;55.840;37.442;2023-05-10T08:53:12;4.78;;;2.08;;
56073;SDS011;41950;55.840;37.442;2023-05-10T08:55:39;4.55;;;2.08;;
56073;SDS011;41950;55.840;37.442;2023-05-10T08:58:07;3.63;;;1.77;;
56073;SDS011;41950;55.840;37.442;2023-05-10T09:00:37;2.88;;;1.35;;
56073;SDS011;41950;55.840;37.442;2023-05-10T09:03:03;3.60;;;1.23;;
56073;SDS011;41950;55.840;37.442;2023-05-10T09:05:33;3.65;;;1.10;;
56073;SDS011;41950;55.840;37.442;2023-05-10T09:07:58;2.90;;;1.38;;
56073;SDS011;41950;55.840;37.442;2023-05-10T09:10:27;4.75;;;1.70;;
56073;SDS011;41950;55.840;37.442;2023-05-10T09:12:56;4.13;;;1.30;;
56073;SDS011;41950;55.840;37.442;2023-05-10T09:15:22;4.15;;;1.70;;
56073;SDS011;41950;55.840;37.442;2023-05-10T09:17:48;2.80;;;1.40;;
56073;SDS011;41950;55.840;37.442;2023-05-10T09:20:15;5.15;;;1.70;;
56073;SDS011;41950;55.840;37.442;2023-05-10T09:22:42;4.63;;;1.50;;
56073;SDS011;41950;55.840;37.442;2023-05-10T09:27:36;3.90;;;1.85;;
56073;SDS011;41950;55.840;37.442;2023-05-10T09:30:04;5.28;;;1.52;;
56073;SDS011;41950;55.840;37.442;2023-05-10T09:32:42;3.45;;;1.70;;
56073;SDS011;41950;55.840;37.442;2023-05-10T09:35:09;4.05;;;1.52;;
56073;SDS011;41950;55.840;37.442;2023-05-10T09:37:38;4.05;;;1.50;;
56073;SDS011;41950;55.840;37.442;2023-05-10T09:40:07;4.97;;;1.70;;
56073;SDS011;41950;55.840;37.442;2023-05-10T09:42:39;4.50;;;1.42;;
56073;SDS011;41950;55.840;37.442;2023-05-10T09:45:07;3.67;;;1.70;;
56073;SDS011;41950;55.840;37.442;2023-05-10T09:47:36;4.20;;;1.60;;
56073;SDS011;41950;55.840;37.442;2023-05-10T09:50:03;4.65;;;1.77;;
56073;SDS011;41950;55.840;37.442;2023-05-10T09:55:47;5.22;;;1.75;;
56073;SDS011;41950;55.840;37.442;2023-05-10T09:58:14;5.47;;;1.90;;
56073;SDS011;41950;55.840;37.442;2023-05-10T10:00:41;5.53;;;1.95;;
56073;SDS011;41950;55.840;37.442;2023-05-10T10:03:21;2.22;;;1.27;;
56073;SDS011;41950;55.840;37.442;2023-05-10T10:05:48;3.30;;;1.48;;
56073;SDS011;41950;55.840;37.442;2023-05-10T10:08:14;5.10;;;1.60;;
56073;SDS011;41950;55.840;37.442;2023-05-10T10:10:41;4.78;;;1.73;;
56073;SDS011;41950;55.840;37.442;2023-05-10T10:13:09;3.40;;;1.65;;
56073;SDS011;41950;55.840;37.442;2023-05-10T10:15:35;4.35;;;1.60;;
56073;SDS011;41950;55.840;37.442;2023-05-10T10:18:01;4.55;;;1.88;;
56073;SDS011;41950;55.840;37.442;2023-05-10T10:20:28;3.65;;;1.70;;
56073;SDS011;41950;55.840;37.442;2023-05-10T10:22:54;4.18;;;1.85;;
56073;SDS011;41950;55.840;37.442;2023-05-10T10:25:20;2.95;;;1.60;;
56073;SDS011;41950;55.840;37.442;2023-05-10T10:30:24;4.28;;;1.70;;
56073;SDS011;41950;55.840;37.442;2023-05-10T10:36:11;3.55;;;1.60;;
56073;SDS011;41950;55.840;37.442;2023-05-10T10:38:54;4.00;;;1.48;;
56073;SDS011;41950;55.840;37.442;2023-05-10T10:52:15;5.82;;;1.83;;
56073;SDS011;41950;55.840;37.442;2023-05-10T10:54:49;4.25;;;1.50;;
56073;SDS011;41950;55.840;37.442;2023-05-10T10:57:17;5.22;;;1.80;;
56073;SDS011;41950;55.840;37.442;2023-05-10T10:59:44;2.92;;;1.30;;
56073;SDS011;41950;55.840;37.442;2023-05-10T11:02:26;5.97;;;1.70;;
56073;SDS011;41950;55.840;37.442;2023-05-10T11:08:06;3.58;;;1.30;;
56073;SDS011;41950;55.840;37.442;2023-05-10T11:10:35;5.70;;;1.80;;
56073;SDS011;41950;55.840;37.442;2023-05-10T11:13:02;4.57;;;2.10;;
56073;SDS011;41950;55.840;37.442;2023-05-10T11:15:33;3.47;;;1.60;;
56073;SDS011;41950;55.840;37.442;2023-05-10T11:18:01;3.25;;;1.45;;
56073;SDS011;41950;55.840;37.442;2023-05-10T11:21:08;3.65;;;1.50;;
56073;SDS011;41950;55.840;37.442;2023-05-10T11:26:07;3.50;;;1.27;;
56073;SDS011;41950;55.840;37.442;2023-05-10T11:28:42;4.18;;;1.35;;
56073;SDS011;41950;55.840;37.442;2023-05-10T11:31:15;2.53;;;1.40;;
56073;SDS011;41950;55.840;37.442;2023-05-10T11:33:45;3.53;;;1.40;;
56073;SDS011;41950;55.840;37.442;2023-05-10T11:36:13;3.22;;;1.48;;
56073;SDS011;41950;55.840;37.442;2023-05-10T11:38:41;3.38;;;1.70;;
56073;SDS011;41950;55.840;37.442;2023-05-10T11:41:10;3.08;;;1.20;;
56073;SDS011;41950;55.840;37.442;2023-05-10T11:43:40;3.30;;;1.42;;
56073;SDS011;41950;55.840;37.442;2023-05-10T11:46:07;3.88;;;1.30;;
56073;SDS011;41950;55.840;37.442;2023-05-10T11:48:35;4.15;;;1.50;;
56073;SDS011;41950;55.840;37.442;2023-05-10T11:51:02;3.78;;;2.47;;
56073;SDS011;41950;55.840;37.442;2023-05-10T11:53:31;4.63;;;1.95;;
56073;SDS011;41950;55.840;37.442;2023-05-10T11:56:07;3.10;;;1.40;;
56073;SDS011;41950;55.840;37.442;2023-05-10T11:58:36;6.40;;;1.60;;
56073;SDS011;41950;55.840;37.442;2023-05-10T12:01:04;4.35;;;1.52;;
56073;SDS011;41950;55.840;37.442;2023-05-10T12:03:31;2.95;;;1.42;;
56073;SDS011;41950;55.840;37.442;2023-05-10T12:05:57;3.92;;;1.58;;
56073;SDS011;41950;55.840;37.442;2023-05-10T12:08:25;2.90;;;1.45;;
56073;SDS011;41950;55.840;37.442;2023-05-10T12:10:53;3.67;;;1.58;;
56073;SDS011;41950;55.840;37.442;2023-05-10T12:13:29;4.63;;;1.55;;
56073;SDS011;41950;55.840;37.442;2023-05-10T12:15:57;3.90;;;1.60;;
56073;SDS011;41950;55.840;37.442;2023-05-10T12:18:23;2.58;;;1.23;;
56073;SDS011;41950;55.840;37.442;2023-05-10T12:20:53;3.70;;;1.50;;
56073;SDS011;41950;55.840;37.442;2023-05-10T12:23:20;3.95;;;1.67;;
56073;SDS011;41950;55.840;37.442;2023-05-10T12:25:46;5.70;;;1.73;;
56073;SDS011;41950;55.840;37.442;2023-05-10T12:28:12;4.03;;;1.48;;
56073;SDS011;41950;55.840;37.442;2023-05-10T12:30:38;3.85;;;1.70;;
56073;SDS011;41950;55.840;37.442;2023-05-10T12:35:53;3.13;;;1.80;;
56073;SDS011;41950;55.840;37.442;2023-05-10T12:38:29;3.58;;;1.70;;
56073;SDS011;41950;55.840;37.442;2023-05-10T12:41:09;4.53;;;1.67;;
56073;SDS011;41950;55.840;37.442;2023-05-10T12:43:37;3.80;;;1.52;;
56073;SDS011;41950;55.840;37.442;2023-05-10T12:46:07;4.53;;;2.00;;
56073;SDS011;41950;55.840;37.442;2023-05-10T12:48:35;3.30;;;1.70;;
56073;SDS011;41950;55.840;37.442;2023-05-10T12:51:03;4.10;;;1.52;;
56073;SDS011;41950;55.840;37.442;2023-05-10T12:53:30;3.38;;;1.55;;
56073;SDS011;41950;55.840;37.442;2023-05-10T12:55:56;2.92;;;1.40;;
56073;SDS011;41950;55.840;37.442;2023-05-10T12:58:23;5.45;;;1.40;;
56073;SDS011;41950;55.840;37.442;2023-05-10T13:00:50;2.90;;;1.40;;
56073;SDS011;41950;55.840;37.442;2023-05-10T13:03:17;3.67;;;1.77;;
56073;SDS011;41950;55.840;37.442;2023-05-10T13:05:42;4.13;;;1.73;;
56073;SDS011;41950;55.840;37.442;2023-05-10T13:08:08;4.35;;;1.70;;
56073;SDS011;41950;55.840;37.442;2023-05-10T13:10:34;4.40;;;1.50;;
56073;SDS011;41950;55.840;37.442;2023-05-10T13:13:00;3.53;;;1.40;;
56073;SDS011;41950;55.840;37.442;2023-05-10T13:15:26;2.67;;;1.40;;
56073;SDS011;41950;55.840;37.442;2023-05-10T13:17:52;4.13;;;1.88;;
56073;SDS011;41950;55.840;37.442;2023-05-10T13:20:19;4.10;;;1.30;;
56073;SDS011;41950;55.840;37.442;2023-05-10T13:22:45;3.03;;;1.60;;
56073;SDS011;41950;55.840;37.442;2023-05-10T13:25:11;3.20;;;1.60;;
56073;SDS011;41950;55.840;37.442;2023-05-10T13:27:37;3.88;;;1.30;;
56073;SDS011;41950;55.840;37.442;2023-05-10T13:30:06;3.95;;;1.30;;
56073;SDS011;41950;55.840;37.442;2023-05-10T13:32:33;3.22;;;1.25;;
56073;SDS011;41950;55.840;37.442;2023-05-10T13:34:59;3.15;;;1.50;;
56073;SDS011;41950;55.840;37.442;2023-05-10T13:37:24;3.00;;;1.50;;
56073;SDS011;41950;55.840;37.442;2023-05-10T13:39:50;4.15;;;1.85;;
56073;SDS011;41950;55.840;37.442;2023-05-10T13:42:19;3.58;;;1.35;;
56073;SDS011;41950;55.840;37.442;2023-05-10T13:44:45;4.15;;;1.40;;
56073;SDS011;41950;55.840;37.442;2023-05-10T13:47:11;3.15;;;1.33;;
56073;SDS011;41950;55.840;37.442;2023-05-10T13:49:37;3.38;;;1.48;;
56073;SDS011;41950;55.840;37.442;2023-05-10T13:52:03;4.35;;;1.55;;
56073;SDS011;41950;55.840;37.442;2023-05-10T13:54:33;2.85;;;1.42;;
56073;SDS011;41950;55.840;37.442;2023-05-10T13:56:59;4.28;;;1.60;;
56073;SDS011;41950;55.840;37.442;2023-05-10T13:59:25;2.97;;;1.20;;
56073;SDS011;41950;55.840;37.442;2023-05-10T14:01:52;3.63;;;1.50;;
56073;SDS011;41950;55.840;37.442;2023-05-10T14:04:18;4.50;;;1.50;;
56073;SDS011;41950;55.840;37.442;2023-05-10T14:06:43;5.20;;;1.80;;
56073;SDS011;41950;55.840;37.442;2023-05-10T14:09:09;3.55;;;1.40;;
56073;SDS011;41950;55.840;37.442;2023-05-10T14:11:35;4.50;;;1.60;;
56073;SDS011;41950;55.840;37.442;2023-05-10T14:14:01;3.53;;;1.40;;
56073;SDS011;41950;55.840;37.442;2023-05-10T14:16:28;3.25;;;1.58;;
56073;SDS011;41950;55.840;37.442;2023-05-10T14:18:53;5.55;;;1.70;;
56073;SDS011;41950;55.840;37.442;2023-05-10T14:21:19;4.30;;;1.70;;
56073;SDS011;41950;55.840;37.442;2023-05-10T14:23:45;3.25;;;1.50;;
56073;SDS011;41950;55.840;37.442;2023-05-10T14:26:11;5.93;;;1.70;;
56073;SDS011;41950;55.840;37.442;2023-05-10T14:28:37;4.78;;;1.70;;
56073;SDS011;41950;55.840;37.442;2023-05-10T14:31:02;4.88;;;1.80;;
56073;SDS011;41950;55.840;37.442;2023-05-10T14:33:28;3.38;;;1.60;;
56073;SDS011;41950;55.840;37.442;2023-05-10T14:35:54;4.10;;;1.67;;
56073;SDS011;41950;55.840;37.442;2023-05-10T14:38:23;5.18;;;1.88;;
56073;SDS011;41950;55.840;37.442;2023-05-10T14:40:49;4.30;;;1.77;;
56073;SDS011;41950;55.840;37.442;2023-05-10T14:43:17;3.05;;;1.60;;
56073;SDS011;41950;55.840;37.442;2023-05-10T14:45:42;5.43;;;1.63;;
56073;SDS011;41950;55.840;37.442;2023-05-10T14:48:08;6.38;;;1.70;;
56073;SDS011;41950;55.840;37.442;2023-05-10T14:50:37;3.28;;;1.73;;
56073;SDS011;41950;55.840;37.442;2023-05-10T14:53:03;4.70;;;1.77;;
56073;SDS011;41950;55.840;37.442;2023-05-10T14:55:29;3.92;;;1.60;;
56073;SDS011;41950;55.840;37.442;2023-05-10T14:57:55;3.92;;;1.65;;
56073;SDS011;41950;55.840;37.442;2023-05-10T15:00:21;5.03;;;1.60;;
56073;SDS011;41950;55.840;37.442;2023-05-10T15:02:47;4.75;;;2.10;;
56073;SDS011;41950;55.840;37.442;2023-05-10T15:05:13;4.88;;;1.85;;
56073;SDS011;41950;55.840;37.442;2023-05-10T15:07:39;4.18;;;1.80;;
56073;SDS011;41950;55.840;37.442;2023-05-10T15:10:05;3.90;;;1.88;;
56073;SDS011;41950;55.840;37.442;2023-05-10T15:12:31;4.78;;;1.90;;
56073;SDS011;41950;55.840;37.442;2023-05-10T15:14:57;5.03;;;2.00;;
56073;SDS011;41950;55.840;37.442;2023-05-10T15:17:23;3.03;;;1.45;;
56073;SDS011;41950;55.840;37.442;2023-05-10T15:19:48;3.65;;;1.60;;
56073;SDS011;41950;55.840;37.442;2023-05-10T15:22:14;4.43;;;1.77;;
56073;SDS011;41950;55.840;37.442;2023-05-10T15:24:40;7.03;;;3.10;;
56073;SDS011;41950;55.840;37.442;2023-05-10T15:27:06;11.07;;;5.15;;